createdAt,value
2022-10-18T00:00:10.598Z,2.85
2022-10-18T00:02:37.963Z,2.28
2022-10-18T00:05:05.565Z,2.55
2022-10-18T00:07:32.571Z,2.30
2022-10-18T00:09:59.559Z,2.80
2022-10-18T00:12:26.369Z,2.67
2022-10-18T00:14:53.319Z,2.88
2022-10-18T00:17:20.117Z,2.58
2022-10-18T00:19:46.834Z,2.75
2022-10-18T00:22:13.558Z,2.85
2022-10-18T00:24:40.372Z,2.40
2022-10-18T00:27:07.138Z,2.92
2022-10-18T00:29:34.137Z,2.75
2022-10-18T00:32:00.908Z,2.50
2022-10-18T00:34:27.748Z,2.47
2022-10-18T00:36:55.107Z,2.60
2022-10-18T00:39:22.310Z,2.45
2022-10-18T00:41:49.970Z,2.85
2022-10-18T00:44:16.666Z,2.78
2022-10-18T00:46:46.549Z,2.38
2022-10-18T00:49:20.224Z,2.67
2022-10-18T00:51:48.755Z,2.50
2022-10-18T00:54:17.225Z,2.78
2022-10-18T00:56:44.976Z,2.55
2022-10-18T00:59:14.654Z,2.70
2022-10-18T01:01:41.461Z,2.50
2022-10-18T01:04:08.341Z,2.70
2022-10-18T01:06:59.502Z,3.00
2022-10-18T01:09:29.038Z,2.85
2022-10-18T01:12:07.657Z,2.70
2022-10-18T01:14:40.376Z,2.70
2022-10-18T01:17:31.209Z,2.80
2022-10-18T01:20:42.058Z,2.55
2022-10-18T01:23:34.269Z,2.63
2022-10-18T01:26:08.890Z,2.70
2022-10-18T01:28:56.491Z,2.63
2022-10-18T01:31:31.359Z,2.05
2022-10-18T01:34:05.085Z,2.50
2022-10-18T01:36:37.934Z,2.75
2022-10-18T01:39:09.008Z,2.75
2022-10-18T01:41:39.783Z,3.33
2022-10-18T01:44:09.732Z,2.35
2022-10-18T01:46:39.360Z,2.45
2022-10-18T01:49:06.328Z,2.42
2022-10-18T01:51:34.131Z,2.60
2022-10-18T01:54:01.296Z,2.70
2022-10-18T01:56:43.193Z,3.90
2022-10-18T01:59:13.089Z,3.15
2022-10-18T02:01:43.590Z,2.72
2022-10-18T02:04:34.035Z,2.70
2022-10-18T02:07:32.425Z,2.60
2022-10-18T02:12:48.919Z,2.53
2022-10-18T02:15:21.800Z,2.47
2022-10-18T02:17:48.518Z,2.40
2022-10-18T02:20:18.359Z,2.30
2022-10-18T02:22:46.937Z,2.38
2022-10-18T02:25:21.378Z,2.47
2022-10-18T02:27:48.314Z,2.83
2022-10-18T02:30:15.757Z,2.47
2022-10-18T02:32:51.168Z,2.20
2022-10-18T02:35:24.891Z,3.00
2022-10-18T02:37:53.866Z,2.35
2022-10-18T02:40:21.031Z,2.50
2022-10-18T02:42:53.667Z,3.17
2022-10-18T02:45:21.178Z,2.95
2022-10-18T02:47:48.183Z,2.67
2022-10-18T02:50:15.130Z,2.50
2022-10-18T02:52:41.857Z,2.63
2022-10-18T02:55:09.701Z,2.40
2022-10-18T02:57:37.071Z,2.50
2022-10-18T03:00:07.879Z,2.20
2022-10-18T03:02:34.943Z,2.50
2022-10-18T03:05:01.782Z,2.38
2022-10-18T03:07:28.611Z,2.33
2022-10-18T03:09:55.583Z,2.10
2022-10-18T03:12:22.348Z,2.53
2022-10-18T03:14:49.221Z,2.45
2022-10-18T03:17:16.049Z,2.08
2022-10-18T03:19:42.843Z,1.92
2022-10-18T03:22:09.671Z,2.47
2022-10-18T03:24:36.383Z,2.33
2022-10-18T03:27:03.707Z,2.42
2022-10-18T03:29:30.499Z,2.08
2022-10-18T03:31:57.285Z,2.35
2022-10-18T03:34:24.096Z,1.73
2022-10-18T03:36:50.865Z,2.40
2022-10-18T03:39:17.647Z,2.60
2022-10-18T03:41:44.382Z,2.35
2022-10-18T03:44:11.153Z,2.47
2022-10-18T03:46:37.952Z,2.00
2022-10-18T03:49:04.806Z,2.05
2022-10-18T03:51:31.538Z,2.40
2022-10-18T03:53:58.309Z,1.95
2022-10-18T03:56:25.130Z,2.65
2022-10-18T03:58:51.935Z,2.30
2022-10-18T04:01:18.784Z,2.35
2022-10-18T04:03:45.735Z,2.40
2022-10-18T04:06:13.178Z,2.38
2022-10-18T04:08:39.995Z,2.22
2022-10-18T04:11:12.038Z,2.10
2022-10-18T04:13:38.922Z,2.05
2022-10-18T04:16:05.857Z,2.10
2022-10-18T04:18:32.669Z,2.42
2022-10-18T04:20:59.581Z,2.47
2022-10-18T04:23:26.399Z,2.30
2022-10-18T04:25:53.230Z,2.50
2022-10-18T04:28:19.978Z,2.85
2022-10-18T04:30:51.484Z,2.33
2022-10-18T04:33:19.115Z,2.25
2022-10-18T04:35:46.946Z,2.55
2022-10-18T04:38:16.518Z,2.45
2022-10-18T04:40:43.248Z,2.45
2022-10-18T04:43:10.193Z,2.53
2022-10-18T04:45:36.992Z,2.33
2022-10-18T04:48:04.097Z,2.45
2022-10-18T04:50:31.175Z,2.38
2022-10-18T04:52:57.946Z,2.50
2022-10-18T04:55:24.853Z,2.75
2022-10-18T04:57:53.302Z,2.65
2022-10-18T05:00:20.176Z,2.75
2022-10-18T05:02:46.939Z,3.53
2022-10-18T05:05:14.372Z,2.70
2022-10-18T05:07:41.350Z,3.08
2022-10-18T05:10:08.605Z,2.75
2022-10-18T05:12:35.428Z,3.08
2022-10-18T05:15:02.250Z,2.97
2022-10-18T05:17:29.021Z,2.88
2022-10-18T05:19:55.728Z,2.33
2022-10-18T05:22:22.495Z,2.90
2022-10-18T05:24:49.288Z,2.63
2022-10-18T05:27:16.004Z,2.70
2022-10-18T05:29:42.805Z,2.92
2022-10-18T05:32:09.620Z,2.65
2022-10-18T05:34:36.475Z,2.35
2022-10-18T05:37:03.272Z,2.55
2022-10-18T05:39:30.092Z,2.90
2022-10-18T05:41:58.081Z,2.63
2022-10-18T05:44:24.863Z,3.05
2022-10-18T05:46:51.662Z,3.42
2022-10-18T05:49:18.531Z,2.78
2022-10-18T05:51:45.330Z,3.05
2022-10-18T05:54:12.779Z,2.70
2022-10-18T05:56:40.161Z,2.95
2022-10-18T05:59:11.966Z,3.35
2022-10-18T06:01:40.263Z,3.15
2022-10-18T06:04:07.656Z,2.97
2022-10-18T06:06:34.539Z,2.97
2022-10-18T06:09:03.276Z,3.17
2022-10-18T06:11:31.230Z,2.80
2022-10-18T06:13:58.200Z,2.63
2022-10-18T06:16:31.278Z,3.28
2022-10-18T06:18:59.981Z,2.97
2022-10-18T06:21:27.395Z,3.40
2022-10-18T06:23:56.279Z,2.80
2022-10-18T06:26:23.570Z,3.20
2022-10-18T06:28:50.536Z,5.15
2022-10-18T06:31:18.385Z,4.80
2022-10-18T06:33:46.099Z,3.72
2022-10-18T06:36:15.090Z,3.63
2022-10-18T06:38:42.449Z,3.45
2022-10-18T06:41:09.744Z,3.15
2022-10-18T06:43:36.866Z,4.53
2022-10-18T06:46:06.723Z,3.50
2022-10-18T06:48:35.139Z,3.67
2022-10-18T06:51:04.823Z,3.10
2022-10-18T06:53:34.409Z,3.40
2022-10-18T06:56:06.083Z,3.40
2022-10-18T06:58:33.771Z,2.92
2022-10-18T07:01:06.878Z,3.10
2022-10-18T07:03:34.887Z,2.72
2022-10-18T07:06:07.165Z,2.78
2022-10-18T07:08:34.422Z,3.03
2022-10-18T07:11:01.483Z,2.30
2022-10-18T07:13:33.057Z,2.58
2022-10-18T07:16:05.962Z,3.10
2022-10-18T07:18:34.583Z,2.60
2022-10-18T07:21:07.508Z,2.60
2022-10-18T07:23:38.759Z,2.50
2022-10-18T07:26:16.501Z,2.28
2022-10-18T07:28:45.835Z,2.42
2022-10-18T07:31:13.180Z,2.25
2022-10-18T07:33:40.255Z,2.72
2022-10-18T07:36:09.249Z,2.63
2022-10-18T07:38:36.321Z,2.40
2022-10-18T07:41:06.478Z,2.47
2022-10-18T07:43:33.947Z,1.70
2022-10-18T07:46:03.057Z,2.65
2022-10-18T07:48:30.058Z,2.25
2022-10-18T07:51:01.423Z,2.10
2022-10-18T07:53:29.632Z,2.67
2022-10-18T07:56:09.506Z,2.08
2022-10-18T07:58:36.846Z,2.40
2022-10-18T08:01:05.114Z,1.90
2022-10-18T08:03:32.075Z,2.30
2022-10-18T08:05:58.963Z,2.20
2022-10-18T08:08:26.554Z,2.03
2022-10-18T08:10:53.300Z,2.40
2022-10-18T08:13:20.387Z,2.90
2022-10-18T08:15:47.421Z,2.45
2022-10-18T08:18:14.326Z,2.10
2022-10-18T08:20:45.635Z,2.33
2022-10-18T08:23:12.570Z,2.40
2022-10-18T08:25:39.582Z,2.85
2022-10-18T08:28:06.931Z,3.15
2022-10-18T08:30:35.458Z,2.70
2022-10-18T08:33:03.109Z,2.17
2022-10-18T08:35:29.951Z,2.20
2022-10-18T08:37:56.654Z,2.25
2022-10-18T08:40:23.450Z,2.42
2022-10-18T08:43:03.298Z,2.13
2022-10-18T08:45:47.661Z,2.10
2022-10-18T08:48:24.037Z,2.15
2022-10-18T08:50:51.798Z,2.45
2022-10-18T08:53:49.207Z,2.13
2022-10-18T08:56:21.469Z,2.20
2022-10-18T08:58:48.425Z,2.10
2022-10-18T09:01:31.596Z,2.50
2022-10-18T09:04:09.447Z,2.22
2022-10-18T09:06:40.423Z,2.00
2022-10-18T09:09:29.447Z,2.17
2022-10-18T09:12:20.300Z,2.35
2022-10-18T09:14:56.161Z,2.30
2022-10-18T09:17:48.509Z,2.15
2022-10-18T09:20:23.065Z,2.13
2022-10-18T09:23:18.451Z,2.15
2022-10-18T09:25:52.480Z,1.85
2022-10-18T09:28:52.533Z,2.67
2022-10-18T09:31:31.102Z,2.08
2022-10-18T09:34:08.510Z,2.50
2022-10-18T09:36:38.620Z,2.03
2022-10-18T09:39:18.691Z,1.90
2022-10-18T09:41:56.315Z,2.63
2022-10-18T09:44:36.093Z,2.60
2022-10-18T09:47:17.043Z,2.10
2022-10-18T09:49:48.379Z,1.80
2022-10-18T09:52:39.558Z,2.20
2022-10-18T09:55:27.468Z,2.00
2022-10-18T09:58:00.916Z,2.25
2022-10-18T10:00:38.872Z,2.10
2022-10-18T10:03:15.758Z,2.15
2022-10-18T10:05:43.996Z,1.98
2022-10-18T10:08:11.574Z,2.55
2022-10-18T10:10:47.159Z,2.65
2022-10-18T10:13:22.845Z,2.90
2022-10-18T10:15:58.181Z,2.88
2022-10-18T10:18:30.959Z,2.67
2022-10-18T10:21:05.575Z,2.55
2022-10-18T10:23:59.046Z,2.67
2022-10-18T10:26:32.418Z,1.83
2022-10-18T10:28:59.310Z,2.40
2022-10-18T10:31:31.436Z,2.30
2022-10-18T10:34:14.497Z,2.05
2022-10-18T10:36:52.400Z,2.20
2022-10-18T10:39:21.184Z,2.25
2022-10-18T10:42:00.310Z,2.08
2022-10-18T10:44:31.804Z,2.15
2022-10-18T10:46:59.489Z,2.42
2022-10-18T10:49:43.250Z,4.10
2022-10-18T10:52:29.093Z,2.80
2022-10-18T10:57:47.232Z,2.20
2022-10-18T11:00:39.497Z,2.20
2022-10-18T11:03:28.356Z,2.30
2022-10-18T11:05:57.745Z,2.10
2022-10-18T11:08:33.488Z,2.28
2022-10-18T11:11:19.342Z,1.98
2022-10-18T11:14:24.278Z,1.83
2022-10-18T11:17:06.932Z,2.40
2022-10-18T11:19:59.115Z,1.60
2022-10-18T11:22:27.882Z,1.95
2022-10-18T11:24:55.230Z,1.80
2022-10-18T11:27:28.107Z,2.20
2022-10-18T11:30:17.843Z,2.33
2022-10-18T11:33:02.017Z,2.03
2022-10-18T11:36:00.207Z,2.30
2022-10-18T11:38:39.055Z,1.40
2022-10-18T11:41:46.132Z,1.58
2022-10-18T11:44:22.027Z,1.70
2022-10-18T11:47:04.314Z,1.35
2022-10-18T11:49:47.662Z,1.20
2022-10-18T11:52:48.309Z,1.17
2022-10-18T11:55:36.615Z,1.58
2022-10-18T11:58:25.758Z,1.35
2022-10-18T12:01:18.321Z,1.23
2022-10-18T12:03:59.376Z,1.38
2022-10-18T12:06:32.625Z,1.30
2022-10-18T12:09:04.040Z,1.08
2022-10-18T12:11:36.381Z,1.23
2022-10-18T12:14:13.729Z,1.20
2022-10-18T12:16:51.510Z,1.50
2022-10-18T12:19:32.977Z,0.93
2022-10-18T12:22:28.464Z,0.75
2022-10-18T12:24:55.209Z,0.70
2022-10-18T12:27:40.741Z,1.20
2022-10-18T12:30:32.634Z,1.17
2022-10-18T12:33:29.112Z,1.20
2022-10-18T12:36:23.488Z,1.05
2022-10-18T12:39:04.936Z,1.23
2022-10-18T12:41:34.432Z,1.00
2022-10-18T12:44:04.570Z,0.90
2022-10-18T12:46:53.877Z,0.90
2022-10-18T12:49:28.396Z,0.80
2022-10-18T12:51:59.314Z,0.90
2022-10-18T12:54:33.132Z,1.02
2022-10-18T12:57:01.386Z,1.10
2022-10-18T12:59:28.105Z,0.93
2022-10-18T13:02:20.581Z,1.20
2022-10-18T13:04:48.404Z,1.00
2022-10-18T13:07:32.448Z,0.70
2022-10-18T13:10:12.796Z,0.90
2022-10-18T13:12:58.525Z,0.90
2022-10-18T13:15:42.829Z,1.10
2022-10-18T13:18:26.482Z,1.20
2022-10-18T13:21:20.295Z,1.23
2022-10-18T13:23:55.408Z,0.90
2022-10-18T13:26:59.076Z,1.40
2022-10-18T13:30:12.992Z,1.10
2022-10-18T13:33:18.488Z,1.13
2022-10-18T13:36:06.949Z,1.20
2022-10-18T13:38:36.828Z,1.15
2022-10-18T13:41:12.908Z,1.25
2022-10-18T13:44:11.511Z,1.30
2022-10-18T13:46:38.482Z,1.10
2022-10-18T13:49:05.171Z,1.15
2022-10-18T13:51:34.725Z,1.38
2022-10-18T13:54:37.393Z,1.10
2022-10-18T13:57:26.003Z,0.90
2022-10-18T14:00:26.913Z,1.00
2022-10-18T14:06:27.202Z,0.93
2022-10-18T14:09:13.907Z,1.40
2022-10-18T14:12:22.939Z,1.52
2022-10-18T14:15:17.038Z,1.60
2022-10-18T14:17:50.537Z,1.08
2022-10-18T14:20:30.219Z,1.20
2022-10-18T14:23:29.957Z,1.02
2022-10-18T14:26:12.119Z,1.20
2022-10-18T14:28:58.747Z,1.23
2022-10-18T14:31:26.649Z,1.30
2022-10-18T14:33:58.002Z,1.40
2022-10-18T14:36:29.354Z,0.88
2022-10-18T14:39:05.303Z,1.02
2022-10-18T14:41:34.336Z,0.90
2022-10-18T14:44:17.574Z,1.15
2022-10-18T14:46:46.852Z,1.15
2022-10-18T14:49:14.615Z,1.00
2022-10-18T14:51:44.565Z,1.13
2022-10-18T14:54:36.682Z,1.10
2022-10-18T14:57:05.614Z,1.10
2022-10-18T14:59:53.729Z,1.27
2022-10-18T15:02:23.952Z,1.17
2022-10-18T15:05:07.770Z,1.40
2022-10-18T15:07:35.668Z,0.90
2022-10-18T15:10:04.615Z,1.13
2022-10-18T15:12:36.999Z,1.20
2022-10-18T15:15:18.232Z,1.00
2022-10-18T15:17:45.686Z,1.25
2022-10-18T15:20:31.427Z,1.15
2022-10-18T15:23:31.412Z,1.10
2022-10-18T15:26:07.879Z,0.90
2022-10-18T15:28:40.522Z,1.25
2022-10-18T15:31:21.890Z,1.10
2022-10-18T15:33:48.797Z,1.20
2022-10-18T15:36:29.431Z,1.08
2022-10-18T15:39:12.906Z,1.90
2022-10-18T15:41:53.169Z,1.38
2022-10-18T15:44:53.858Z,1.48
2022-10-18T15:47:22.903Z,2.25
2022-10-18T15:49:56.459Z,1.42
2022-10-18T15:52:55.975Z,1.50
2022-10-18T15:55:31.529Z,1.27
2022-10-18T15:58:06.823Z,1.48
2022-10-18T16:00:33.734Z,1.23
2022-10-18T16:03:00.476Z,1.98
2022-10-18T16:05:27.261Z,1.60
2022-10-18T16:07:54.318Z,1.15
2022-10-18T16:10:21.168Z,1.20
2022-10-18T16:12:47.924Z,1.25
2022-10-18T16:15:14.749Z,1.27
2022-10-18T16:17:41.476Z,1.38
2022-10-18T16:20:21.139Z,1.90
2022-10-18T16:22:48.055Z,1.50
2022-10-18T16:25:15.007Z,1.63
2022-10-18T16:27:41.732Z,1.20
2022-10-18T16:30:18.329Z,1.80
2022-10-18T16:32:46.187Z,1.90
2022-10-18T16:35:13.423Z,1.73
2022-10-18T16:37:40.475Z,1.77
2022-10-18T16:40:23.292Z,1.98
2022-10-18T16:42:50.102Z,1.77
2022-10-18T16:45:17.213Z,1.83
2022-10-18T16:47:44.349Z,1.88
2022-10-18T16:50:16.080Z,2.08
2022-10-18T16:52:43.656Z,1.70
2022-10-18T16:55:17.023Z,1.65
2022-10-18T16:57:44.041Z,2.15
2022-10-18T17:00:20.946Z,1.80
2022-10-18T17:02:48.698Z,2.30
2022-10-18T17:05:17.026Z,2.20
2022-10-18T17:07:44.433Z,2.00
2022-10-18T17:10:17.066Z,2.28
2022-10-18T17:12:43.906Z,2.30
2022-10-18T17:15:11.728Z,2.42
2022-10-18T17:17:39.182Z,2.10
2022-10-18T17:20:08.388Z,1.90
2022-10-18T17:22:35.561Z,2.08
2022-10-18T17:25:02.295Z,2.08
2022-10-18T17:27:30.322Z,1.85
2022-10-18T17:29:57.586Z,1.90
2022-10-18T17:32:24.429Z,2.20
2022-10-18T17:34:51.291Z,2.05
2022-10-18T17:37:18.071Z,1.77
2022-10-18T17:39:44.830Z,1.98
2022-10-18T17:42:11.566Z,2.45
2022-10-18T17:44:38.286Z,3.25
2022-10-18T17:47:05.055Z,3.85
2022-10-18T17:49:31.827Z,6.10
2022-10-18T17:52:00.274Z,5.18
2022-10-18T17:54:29.921Z,4.30
2022-10-18T17:56:56.723Z,4.63
2022-10-18T17:59:23.605Z,4.80
2022-10-18T18:01:50.369Z,4.85
2022-10-18T18:04:17.186Z,5.05
2022-10-18T18:06:45.351Z,8.18
2022-10-18T18:09:15.157Z,5.05
2022-10-18T18:11:44.598Z,4.93
2022-10-18T18:14:11.948Z,4.00
2022-10-18T18:16:41.273Z,3.60
2022-10-18T18:19:09.930Z,3.50
2022-10-18T18:21:38.873Z,3.50
2022-10-18T18:24:05.839Z,3.38
2022-10-18T18:26:34.327Z,3.40
2022-10-18T18:31:36.924Z,3.15
2022-10-18T18:34:07.030Z,3.22
2022-10-18T18:36:33.835Z,2.83
2022-10-18T18:39:00.704Z,2.40
2022-10-18T18:41:28.755Z,2.63
2022-10-18T18:43:57.802Z,2.60
2022-10-18T18:46:26.171Z,2.65
2022-10-18T18:48:53.103Z,4.20
2022-10-18T18:51:21.353Z,3.97
2022-10-18T18:53:48.759Z,3.28
2022-10-18T18:56:23.626Z,3.38
2022-10-18T18:58:51.095Z,3.00
2022-10-18T19:01:20.674Z,2.80
2022-10-18T19:03:50.312Z,3.00
2022-10-18T19:06:20.166Z,2.72
2022-10-18T19:08:47.875Z,2.88
2022-10-18T19:11:20.154Z,2.70
2022-10-18T19:13:47.933Z,2.80
2022-10-18T19:16:29.796Z,2.80
2022-10-18T19:19:09.650Z,2.97
2022-10-18T19:21:38.778Z,3.20
2022-10-18T19:24:06.663Z,3.47
2022-10-18T19:26:48.766Z,3.78
2022-10-18T19:29:21.486Z,3.00
2022-10-18T19:31:49.917Z,3.10
2022-10-18T19:34:17.819Z,3.00
2022-10-18T19:36:46.729Z,3.60
2022-10-18T19:39:18.397Z,4.00
2022-10-18T19:41:46.576Z,3.22
2022-10-18T19:44:13.430Z,3.67
2022-10-18T19:46:40.198Z,3.58
2022-10-18T19:49:07.046Z,3.47
2022-10-18T19:51:33.859Z,4.40
2022-10-18T19:54:00.804Z,3.65
2022-10-18T19:56:28.560Z,3.60
2022-10-18T19:58:57.155Z,3.05
2022-10-18T20:01:25.076Z,3.60
2022-10-18T20:03:51.931Z,3.72
2022-10-18T20:06:18.928Z,3.90
2022-10-18T20:08:46.373Z,4.43
2022-10-18T20:11:16.315Z,5.00
2022-10-18T20:13:43.747Z,5.13
2022-10-18T20:16:28.582Z,4.18
2022-10-18T20:19:00.364Z,4.00
2022-10-18T20:21:29.197Z,4.60
2022-10-18T20:23:58.362Z,4.28
2022-10-18T20:26:25.676Z,4.50
2022-10-18T20:28:59.418Z,4.78
2022-10-18T20:31:32.076Z,4.72
2022-10-18T20:34:04.103Z,4.63
2022-10-18T20:36:32.190Z,4.10
2022-10-18T20:39:02.344Z,5.00
2022-10-18T20:41:35.213Z,4.47
2022-10-18T20:44:07.918Z,4.10
2022-10-18T20:46:37.437Z,5.30
2022-10-18T20:49:08.373Z,4.57
2022-10-18T20:51:35.741Z,4.22
2022-10-18T20:54:06.260Z,4.25
2022-10-18T20:56:37.766Z,4.38
2022-10-18T20:59:10.503Z,4.75
2022-10-18T21:01:38.819Z,3.88
2022-10-18T21:04:08.141Z,3.97
2022-10-18T21:06:41.012Z,3.88
2022-10-18T21:09:13.620Z,3.83
2022-10-18T21:11:43.279Z,4.47
2022-10-18T21:14:12.953Z,5.78
2022-10-18T21:16:40.318Z,6.25
2022-10-18T21:19:15.419Z,5.35
2022-10-18T21:21:44.438Z,5.03
2022-10-18T21:24:12.850Z,4.32
2022-10-18T21:26:39.932Z,4.28
2022-10-18T21:29:06.934Z,4.53
2022-10-18T21:31:39.212Z,4.50
2022-10-18T21:34:14.496Z,3.88
2022-10-18T21:36:43.027Z,3.70
2022-10-18T21:39:14.875Z,4.53
2022-10-18T21:41:42.681Z,4.05
2022-10-18T21:44:11.175Z,4.35
2022-10-18T21:46:39.436Z,3.92
2022-10-18T21:49:07.095Z,4.22
2022-10-18T21:51:34.242Z,4.13
2022-10-18T21:54:01.168Z,4.53
2022-10-18T21:56:34.350Z,4.18
2022-10-18T22:01:34.195Z,4.22
2022-10-18T22:04:02.260Z,4.45
2022-10-18T22:06:32.297Z,4.03
2022-10-18T22:09:01.106Z,4.00
2022-10-18T22:11:33.894Z,4.10
2022-10-18T22:14:00.703Z,4.43
2022-10-18T22:16:28.289Z,4.85
2022-10-18T22:19:01.157Z,4.47
2022-10-18T22:21:28.894Z,4.45
2022-10-18T22:23:57.203Z,3.90
2022-10-18T22:26:27.480Z,4.15
2022-10-18T22:28:59.632Z,4.25
2022-10-18T22:31:30.812Z,3.60
2022-10-18T22:34:00.126Z,3.60
2022-10-18T22:36:27.682Z,4.05
2022-10-18T22:38:54.748Z,4.35
2022-10-18T22:41:21.858Z,3.85
2022-10-18T22:43:51.063Z,4.07
2022-10-18T22:46:18.883Z,4.03
2022-10-18T22:48:46.130Z,4.60
2022-10-18T22:51:13.488Z,4.93
2022-10-18T22:53:40.854Z,4.28
2022-10-18T22:56:09.362Z,3.67
2022-10-18T22:58:36.153Z,3.95
2022-10-18T23:01:08.297Z,4.03
2022-10-18T23:03:35.805Z,4.93
2022-10-18T23:06:03.063Z,5.40
2022-10-18T23:08:30.472Z,6.03
2022-10-18T23:10:59.029Z,4.90
2022-10-18T23:13:27.029Z,4.78
2022-10-18T23:16:04.199Z,4.35
2022-10-18T23:18:32.347Z,4.32
2022-10-18T23:21:12.109Z,4.10
2022-10-18T23:23:41.316Z,4.57
2022-10-18T23:26:11.299Z,4.78
2022-10-18T23:28:40.932Z,4.43
2022-10-18T23:31:19.864Z,5.50
2022-10-18T23:33:51.965Z,4.50
2022-10-18T23:36:18.996Z,4.53
2022-10-18T23:38:46.080Z,4.53
2022-10-18T23:41:14.352Z,4.95
2022-10-18T23:43:41.942Z,4.47
2022-10-18T23:46:09.614Z,4.95
2022-10-18T23:48:36.713Z,5.00
2022-10-18T23:51:04.261Z,5.82
2022-10-18T23:53:31.852Z,5.10
2022-10-18T23:56:04.362Z,4.82
2022-10-18T23:58:32.513Z,4.93
